sensor_id;sensor_type;location;lat;lon;timestamp;temperature;humidity
13978;DHT22;7063;49.260;8.636;2023-05-10T10:07:32;15.60;99.90
13978;DHT22;7063;49.260;8.636;2023-05-10T10:09:59;18.20;92.50
13978;DHT22;7063;49.260;8.636;2023-05-10T11:08:26;18.40;90.90
13978;DHT22;7063;49.260;8.636;2023-05-10T12:57:13;18.50;94.00
13978;DHT22;7063;49.260;8.636;2023-05-10T12:59:39;18.20;63.80
13978;DHT22;7063;49.260;8.636;2023-05-10T13:02:04;18.40;61.50
13978;DHT22;7063;49.260;8.636;2023-05-10T13:04:30;18.40;61.20
13978;DHT22;7063;49.260;8.636;2023-05-10T13:06:55;18.70;58.20
13978;DHT22;7063;49.260;8.636;2023-05-10T13:09:24;18.90;58.80
13978;DHT22;7063;49.260;8.636;2023-05-10T13:11:50;19.10;56.00
13978;DHT22;7063;49.260;8.636;2023-05-10T13:14:16;18.90;52.20
13978;DHT22;7063;49.260;8.636;2023-05-10T13:16:41;18.70;51.40
13978;DHT22;7063;49.260;8.636;2023-05-10T13:19:07;18.90;53.70
13978;DHT22;7063;49.260;8.636;2023-05-10T13:21:32;18.90;54.20
13978;DHT22;7063;49.260;8.636;2023-05-10T13:23:58;18.70;53.40
13978;DHT22;7063;49.260;8.636;2023-05-10T13:26:23;19.00;51.60
13978;DHT22;7063;49.260;8.636;2023-05-10T13:28:50;19.20;50.90
13978;DHT22;7063;49.260;8.636;2023-05-10T20:28:11;19.40;52.50
13978;DHT22;7063;49.260;8.636;2023-05-10T21:07:12;14.40;94.60
13978;DHT22;7063;49.260;8.636;2023-05-10T21:09:37;13.80;99.90
13978;DHT22;7063;49.260;8.636;2023-05-10T21:12:03;13.80;99.90
13978;DHT22;7063;49.260;8.636;2023-05-10T21:14:29;13.80;99.90
13978;DHT22;7063;49.260;8.636;2023-05-10T21:16:57;13.80;99.90
13978;DHT22;7063;49.260;8.636;2023-05-10T21:19:22;13.80;99.90
13978;DHT22;7063;49.260;8.636;2023-05-10T21:21:48;13.70;99.90
13978;DHT22;7063;49.260;8.636;2023-05-10T21:24:13;13.70;99.90
13978;DHT22;7063;49.260;8.636;2023-05-10T21:26:39;13.60;99.90
13978;DHT22;7063;49.260;8.636;2023-05-10T22:12:57;13.60;99.90
13978;DHT22;7063;49.260;8.636;2023-05-10T22:15:24;12.80;99.90
13978;DHT22;7063;49.260;8.636;2023-05-10T22:17:50;12.80;99.90
13978;DHT22;7063;49.260;8.636;2023-05-10T22:20:15;12.80;99.90
13978;DHT22;7063;49.260;8.636;2023-05-10T22:22:41;12.80;99.90
13978;DHT22;7063;49.260;8.636;2023-05-10T22:25:07;12.70;99.90
13978;DHT22;7063;49.260;8.636;2023-05-10T22:27:32;12.70;99.90
13978;DHT22;7063;49.260;8.636;2023-05-10T22:29:58;12.70;99.90
13978;DHT22;7063;49.260;8.636;2023-05-10T22:32:23;12.70;99.90
13978;DHT22;7063;49.260;8.636;2023-05-10T22:34:49;12.70;99.90
13978;DHT22;7063;49.260;8.636;2023-05-10T22:37:14;12.70;99.90
13978;DHT22;7063;49.260;8.636;2023-05-10T22:39:45;12.70;99.90
13978;DHT22;7063;49.260;8.636;2023-05-10T22:42:11;12.70;99.90
13978;DHT22;7063;49.260;8.636;2023-05-10T22:44:36;12.60;99.90
13978;DHT22;7063;49.260;8.636;2023-05-10T22:47:02;12.60;99.90
13978;DHT22;7063;49.260;8.636;2023-05-10T22:49:28;12.60;99.90
13978;DHT22;7063;49.260;8.636;2023-05-10T22:51:53;12.60;99.90
13978;DHT22;7063;49.260;8.636;2023-05-10T22:54:19;12.50;99.90
13978;DHT22;7063;49.260;8.636;2023-05-10T22:56:44;12.60;99.90
13978;DHT22;7063;49.260;8.636;2023-05-10T22:59:10;12.60;99.90
13978;DHT22;7063;49.260;8.636;2023-05-10T23:01:36;12.50;99.90
13978;DHT22;7063;49.260;8.636;2023-05-10T23:04:01;12.50;99.90
13978;DHT22;7063;49.260;8.636;2023-05-10T23:06:27;12.50;99.90
13978;DHT22;7063;49.260;8.636;2023-05-10T23:08:53;12.40;99.90
13978;DHT22;7063;49.260;8.636;2023-05-10T23:11:19;12.40;99.90
13978;DHT22;7063;49.260;8.636;2023-05-10T23:13:46;12.40;99.90
13978;DHT22;7063;49.260;8.636;2023-05-10T23:16:11;12.40;99.90
13978;DHT22;7063;49.260;8.636;2023-05-10T23:18:37;12.40;99.90
13978;DHT22;7063;49.260;8.636;2023-05-10T23:21:04;12.30;99.90
13978;DHT22;7063;49.260;8.636;2023-05-10T23:23:29;12.40;99.90
13978;DHT22;7063;49.260;8.636;2023-05-10T23:25:56;12.30;99.90
13978;DHT22;7063;49.260;8.636;2023-05-10T23:28:22;12.40;99.90
13978;DHT22;7063;49.260;8.636;2023-05-10T23:30:56;12.30;99.90
13978;DHT22;7063;49.260;8.636;2023-05-10T23:33:22;12.30;99.90
13978;DHT22;7063;49.260;8.636;2023-05-10T23:35:48;12.30;99.90
13978;DHT22;7063;49.260;8.636;2023-05-10T23:38:15;12.30;99.90
13978;DHT22;7063;49.260;8.636;2023-05-10T23:40:40;12.30;99.90
13978;DHT22;7063;49.260;8.636;2023-05-10T23:43:06;12.20;99.90
13978;DHT22;7063;49.260;8.636;2023-05-10T23:45:32;12.20;99.90
13978;DHT22;7063;49.260;8.636;2023-05-10T23:47:58;12.20;99.90
13978;DHT22;7063;49.260;8.636;2023-05-10T23:50:24;12.20;99.90
13978;DHT22;7063;49.260;8.636;2023-05-10T23:52:49;12.10;99.90
13978;DHT22;7063;49.260;8.636;2023-05-10T23:55:15;12.10;99.90
13978;DHT22;7063;49.260;8.636;2023-05-10T23:57:40;12.10;99.90
